Time;durP1;ratioP1;P1;durP2;ratioP2;P2;SDS_P1;SDS_P2;PMS_P1;PMS_P2;Temp;Humidity;BMP_temperature;BMP_pressure;BME280_temperature;BME280_humidity;BME280_pressure;Samples;Min_cycle;Max_cycle;Signal;HPM_P1;HPM_P2
2021/05/05 00:02:11;;;;;;;3.10;1.15;;;;;;;8.60;74.45;99130.56;5105958;28;20115;-82
2021/05/05 00:04:38;;;;;;;1.50;1.17;;;;;;;8.52;74.46;99129.31;5102884;28;21060;-82
2021/05/05 00:07:05;;;;;;;2.95;1.30;;;;;;;8.49;74.86;99125.09;5100778;28;20079;-82
2021/05/05 00:09:31;;;;;;;5.40;1.70;;;;;;;8.55;74.80;99137.06;5103918;28;20096;-82
2021/05/05 00:11:57;;;;;;;2.33;1.30;;;;;;;8.57;74.49;99137.81;5081331;28;20131;-82
2021/05/05 00:14:24;;;;;;;2.80;1.60;;;;;;;8.56;74.64;99129.06;5093779;28;20115;-81
2021/05/05 00:16:51;;;;;;;3.92;1.75;;;;;;;8.56;74.03;99125.56;5102223;28;20101;-82
2021/05/05 00:19:17;;;;;;;5.82;1.60;;;;;;;8.50;74.13;99123.31;5111167;27;20029;-81
2021/05/05 00:21:44;;;;;;;3.17;1.27;;;;;;;8.47;74.20;99118.19;5091993;28;20758;-81
2021/05/05 00:24:14;;;;;;;4.15;1.35;;;;;;;8.39;74.47;99118.63;5096625;28;20050;-82
2021/05/05 00:26:45;;;;;;;4.07;1.40;;;;;;;8.33;74.78;99114.59;5090213;28;20068;-82
2021/05/05 00:29:12;;;;;;;2.67;1.13;;;;;;;8.36;74.77;99118.81;5097878;28;20120;-82
2021/05/05 00:31:38;;;;;;;5.05;1.48;;;;;;;8.19;74.61;99095.16;5113097;28;20075;-81
2021/05/05 00:34:10;;;;;;;2.40;1.13;;;;;;;8.34;74.15;99113.63;5121738;28;20047;-81
2021/05/05 00:36:40;;;;;;;3.47;1.05;;;;;;;8.33;74.16;99117.22;5131100;27;20058;-80
2021/05/05 00:39:09;;;;;;;3.28;1.10;;;;;;;8.34;74.46;99118.06;5110267;28;20040;-82
2021/05/05 00:41:35;;;;;;;1.85;1.05;;;;;;;8.30;74.20;99114.72;5114495;28;20047;-80
2021/05/05 00:44:04;;;;;;;2.90;1.10;;;;;;;8.28;73.89;99105.19;5106585;28;20051;-82
2021/05/05 00:46:30;;;;;;;3.97;1.10;;;;;;;8.33;73.78;99114.59;5079495;28;20096;-82
2021/05/05 00:48:57;;;;;;;3.78;1.05;;;;;;;8.32;74.20;99114.66;5101741;28;20040;-82
2021/05/05 00:51:23;;;;;;;2.47;1.20;;;;;;;8.34;74.06;99123.34;5094958;28;20131;-81
2021/05/05 00:53:50;;;;;;;1.60;1.00;;;;;;;8.39;73.92;99123.91;5096220;28;20101;-82
2021/05/05 00:56:16;;;;;;;3.38;1.20;;;;;;;8.41;73.57;99114.97;5093463;28;20066;-81
2021/05/05 00:58:45;;;;;;;2.47;1.20;;;;;;;8.38;73.53;99107.22;5096081;28;20070;-81
2021/05/05 01:01:13;;;;;;;2.85;1.10;;;;;;;8.42;73.68;99113.19;5100116;28;20444;-82
2021/05/05 01:03:40;;;;;;;2.28;1.30;;;;;;;8.41;73.55;99112.34;5107615;28;20342;-81
2021/05/05 01:06:07;;;;;;;3.78;1.45;;;;;;;8.41;73.99;99117.59;5097660;28;20135;-82
2021/05/05 01:08:33;;;;;;;3.80;1.17;;;;;;;8.38;74.05;99114.28;5094057;28;20040;-82
2021/05/05 01:11:02;;;;;;;4.50;1.60;;;;;;;8.36;74.16;99103.81;5104804;28;20044;-82
2021/05/05 01:13:28;;;;;;;5.88;1.70;;;;;;;8.42;74.78;99107.91;5103123;28;20032;-82
2021/05/05 01:15:55;;;;;;;6.50;2.03;;;;;;;8.43;74.79;99101.69;5098021;28;20056;-81
2021/05/05 01:18:21;;;;;;;4.25;1.58;;;;;;;8.44;75.07;99095.47;5099216;28;20068;-82
2021/05/05 01:20:54;;;;;;;3.13;1.80;;;;;;;8.44;74.75;99101.59;5088161;28;20071;-82
2021/05/05 01:23:24;;;;;;;3.13;1.67;;;;;;;8.44;74.59;99104.25;5091638;28;20111;-82
2021/05/05 01:25:54;;;;;;;3.15;1.80;;;;;;;8.41;75.20;99090.38;5095753;28;20051;-81
2021/05/05 01:28:21;;;;;;;4.03;1.70;;;;;;;8.37;75.18;99087.06;5091262;28;20052;-82
2021/05/05 01:30:49;;;;;;;2.65;1.50;;;;;;;8.34;74.88;99097.78;5094259;28;20115;-81
2021/05/05 01:33:16;;;;;;;4.13;1.70;;;;;;;8.24;75.81;99087.84;5098726;28;20044;-82
2021/05/05 01:35:45;;;;;;;4.45;2.00;;;;;;;8.24;75.92;99104.50;5099494;28;20048;-82
2021/05/05 01:38:11;;;;;;;5.80;1.60;;;;;;;8.18;76.01;99093.50;5092758;28;20068;-81
2021/05/05 01:40:40;;;;;;;3.10;1.55;;;;;;;8.17;76.11;99100.56;5111721;28;20056;-81
2021/05/05 01:43:08;;;;;;;2.60;1.25;;;;;;;8.11;76.35;99092.97;5090189;28;20043;-81
2021/05/05 01:45:36;;;;;;;4.30;1.52;;;;;;;8.13;76.31;99085.00;5106941;28;20075;-81
2021/05/05 01:48:05;;;;;;;5.43;1.58;;;;;;;8.12;76.46;99092.03;5107668;28;20036;-81
2021/05/05 01:50:33;;;;;;;4.03;1.67;;;;;;;8.10;76.80;99094.75;5111511;28;20039;-81
2021/05/05 01:53:00;;;;;;;5.20;1.95;;;;;;;8.14;76.80;99094.59;5102411;28;20075;-81
2021/05/05 01:55:29;;;;;;;6.35;1.85;;;;;;;8.09;76.77;99095.69;5091203;28;20055;-81
2021/05/05 01:57:55;;;;;;;5.50;1.80;;;;;;;8.06;77.25;99098.50;5090038;28;20055;-81
2021/05/05 02:00:24;;;;;;;6.00;1.70;;;;;;;8.04;76.99;99094.25;5090256;28;20036;-81
2021/05/05 02:02:56;;;;;;;6.47;1.90;;;;;;;8.00;76.81;99088.34;5091709;28;20062;-82
2021/05/05 02:05:22;;;;;;;4.97;1.75;;;;;;;7.97;76.94;99087.66;5094617;28;20070;-82
2021/05/05 02:07:49;;;;;;;2.88;1.50;;;;;;;8.00;76.80;99088.34;5089005;28;20075;-82
2021/05/05 02:10:19;;;;;;;8.95;2.60;;;;;;;8.01;77.41;99089.19;5091429;28;20111;-82
2021/05/05 02:12:46;;;;;;;2.88;1.70;;;;;;;8.02;77.10;99085.63;5093585;28;20167;-81
2021/05/05 02:15:14;;;;;;;2.45;1.75;;;;;;;8.05;76.49;99083.63;5094624;28;20070;-81
2021/05/05 02:17:41;;;;;;;3.92;1.98;;;;;;;8.03;76.76;99088.13;5090493;28;20076;-82
2021/05/05 02:20:10;;;;;;;4.13;1.60;;;;;;;8.05;76.32;99090.69;5094852;28;20048;-80
2021/05/05 02:22:38;;;;;;;4.05;1.42;;;;;;;8.01;76.67;99086.56;5082325;28;20058;-81
2021/05/05 02:25:05;;;;;;;4.03;1.58;;;;;;;8.02;76.17;99094.38;5099859;28;20041;-81
2021/05/05 02:27:31;;;;;;;3.75;1.50;;;;;;;7.98;76.78;99098.13;5084360;28;20064;-81
2021/05/05 02:29:57;;;;;;;4.35;1.60;;;;;;;7.91;76.52;99086.19;5103919;28;20039;-81
2021/05/05 02:32:25;;;;;;;5.65;1.50;;;;;;;7.94;76.97;99087.81;5105019;28;20207;-81
2021/05/05 02:34:53;;;;;;;5.72;1.80;;;;;;;7.96;76.38;99088.59;5108594;28;20078;-82
2021/05/05 02:37:19;;;;;;;4.75;1.48;;;;;;;7.94;75.88;99083.41;5112385;28;20083;-82
2021/05/05 02:39:45;;;;;;;4.13;1.45;;;;;;;7.92;75.65;99076.50;5113670;28;20064;-81
2021/05/05 02:42:15;;;;;;;4.28;1.80;;;;;;;7.85;75.89;99086.56;5118196;28;20024;-81
2021/05/05 02:44:44;;;;;;;3.40;1.33;;;;;;;7.86;75.53;99085.63;5115479;28;20024;-82
2021/05/05 02:47:12;;;;;;;4.20;1.57;;;;;;;7.90;75.03;99087.13;5113697;27;20032;-81
2021/05/05 02:49:39;;;;;;;6.25;1.63;;;;;;;7.93;74.42;99086.97;5105313;28;20470;-81
2021/05/05 02:52:07;;;;;;;4.43;1.38;;;;;;;7.92;74.01;99082.63;5117040;28;20087;-81
2021/05/05 02:54:35;;;;;;;5.93;1.40;;;;;;;7.88;73.79;99081.09;5098464;28;20059;-81
2021/05/05 02:57:03;;;;;;;6.35;1.52;;;;;;;7.83;73.80;99082.31;5114978;28;20028;-81
2021/05/05 02:59:32;;;;;;;2.03;1.33;;;;;;;7.85;72.85;99076.03;5106662;28;20071;-81
2021/05/05 03:01:59;;;;;;;11.27;1.65;;;;;;;7.84;72.70;99078.75;5075289;28;20141;-82
2021/05/05 03:04:26;;;;;;;3.75;1.27;;;;;;;7.79;72.68;99073.72;5096357;28;20428;-81
2021/05/05 03:06:53;;;;;;;7.25;2.20;;;;;;;7.71;72.79;99074.16;5093783;28;20159;-82
2021/05/05 03:09:25;;;;;;;4.30;1.70;;;;;;;7.79;72.07;99078.16;5089937;28;20602;-82
2021/05/05 03:11:59;;;;;;;6.60;1.73;;;;;;;7.79;72.04;99089.53;5094020;28;20055;-81
2021/05/05 03:14:29;;;;;;;4.25;1.45;;;;;;;7.80;71.83;99087.75;5090542;28;20460;-82
2021/05/05 03:16:57;;;;;;;5.10;1.52;;;;;;;7.74;71.45;99081.03;5095590;28;20062;-82
2021/05/05 03:19:25;;;;;;;2.70;1.15;;;;;;;7.70;70.47;99085.66;5106633;28;20064;-82
2021/05/05 03:21:51;;;;;;;6.50;1.67;;;;;;;7.71;69.99;99091.78;5099897;28;20601;-82
2021/05/05 03:24:19;;;;;;;3.33;1.48;;;;;;;7.60;70.60;99084.44;5092770;28;20090;-81
2021/05/05 03:26:45;;;;;;;3.25;1.25;;;;;;;7.67;70.16;99084.97;5079952;28;20060;-82
2021/05/05 03:29:11;;;;;;;4.30;1.27;;;;;;;7.62;70.00;99077.31;5087956;28;21539;-82
2021/05/05 03:31:43;;;;;;;5.63;1.67;;;;;;;7.70;69.66;99084.81;5094491;28;20071;-82
2021/05/05 03:34:09;;;;;;;10.68;2.63;;;;;;;7.63;69.75;99089.56;5077468;28;20524;-82
2021/05/05 03:36:36;;;;;;;5.15;1.45;;;;;;;7.62;69.94;99100.16;5077770;28;20059;-82
2021/05/05 03:39:06;;;;;;;8.82;1.98;;;;;;;7.63;68.99;99094.81;5096153;28;20066;-82
2021/05/05 03:41:32;;;;;;;3.67;1.38;;;;;;;7.58;69.16;99098.63;5076057;28;20367;-82
2021/05/05 03:44:01;;;;;;;4.65;1.30;;;;;;;7.54;69.19;99100.59;5098500;28;20044;-82
2021/05/05 03:46:28;;;;;;;5.15;1.25;;;;;;;7.57;68.62;99096.94;5095058;28;20101;-82
2021/05/05 03:48:56;;;;;;;3.92;1.38;;;;;;;7.50;69.03;99098.22;5090024;28;20048;-82
2021/05/05 03:51:23;;;;;;;5.32;1.40;;;;;;;7.55;68.34;99104.09;5087823;28;20051;-82
2021/05/05 03:53:52;;;;;;;4.82;1.38;;;;;;;7.52;68.64;99107.75;5091466;28;20040;-82
2021/05/05 03:56:18;;;;;;;5.03;1.42;;;;;;;7.58;68.61;99114.44;5091230;28;20107;-82
2021/05/05 03:58:44;;;;;;;5.78;1.30;;;;;;;7.51;68.71;99113.94;5090394;28;20174;-82
2021/05/05 04:01:10;;;;;;;8.32;1.65;;;;;;;7.50;69.11;99116.66;5085848;28;20479;-82
2021/05/05 04:03:36;;;;;;;4.20;1.55;;;;;;;7.51;68.37;99116.56;5088836;28;20076;-82
2021/05/05 04:06:02;;;;;;;6.85;2.10;;;;;;;7.53;69.00;99108.59;5087918;28;20052;-82
2021/05/05 04:08:28;;;;;;;5.88;1.92;;;;;;;7.49;69.01;99112.31;5088860;28;20066;-83
2021/05/05 04:10:55;;;;;;;4.63;1.58;;;;;;;7.51;68.85;99099.91;5071996;28;20051;-82
2021/05/05 04:13:23;;;;;;;5.45;1.70;;;;;;;7.49;68.76;99107.06;5096039;28;20045;-82
2021/05/05 04:16:07;;;;;;;6.80;1.65;;;;;;;7.53;68.26;99109.44;5090824;28;20067;-82
2021/05/05 04:18:50;;;;;;;9.35;2.33;;;;;;;7.53;68.04;99116.50;5081952;28;20528;-81
2021/05/05 04:21:37;;;;;;;4.47;1.50;;;;;;;7.59;67.53;99119.63;5095859;28;20074;-82
2021/05/05 04:24:20;;;;;;;5.80;1.83;;;;;;;7.55;67.93;99125.16;5098965;28;21692;-82
2021/05/05 04:26:49;;;;;;;8.75;1.85;;;;;;;7.48;67.54;99119.38;5098221;28;20040;-82
2021/05/05 04:29:18;;;;;;;4.30;1.50;;;;;;;7.46;67.60;99115.97;5098263;28;20044;-82
2021/05/05 04:31:45;;;;;;;3.85;1.30;;;;;;;7.47;67.59;99125.56;5107875;28;20040;-81
2021/05/05 04:34:11;;;;;;;6.57;1.90;;;;;;;7.47;67.88;99135.25;5108521;28;20108;-82
2021/05/05 04:36:37;;;;;;;6.95;1.85;;;;;;;7.51;67.29;99136.81;5106058;28;20048;-82
2021/05/05 04:39:04;;;;;;;5.47;1.70;;;;;;;7.54;66.75;99147.19;5106406;28;20043;-81
2021/05/05 04:41:30;;;;;;;6.22;1.70;;;;;;;7.49;67.35;99146.56;5108245;28;20064;-80
2021/05/05 04:44:03;;;;;;;4.47;1.63;;;;;;;7.46;67.27;99146.72;5088265;28;20040;-81
2021/05/05 04:46:29;;;;;;;4.03;1.70;;;;;;;7.47;67.52;99141.38;5098438;28;20037;-79
2021/05/05 04:48:56;;;;;;;9.50;2.05;;;;;;;7.47;67.10;99146.66;5096779;28;20071;-79
2021/05/05 04:51:22;;;;;;;11.07;1.83;;;;;;;7.49;67.03;99149.19;5098177;28;20072;-79
2021/05/05 04:53:48;;;;;;;5.47;1.75;;;;;;;7.44;67.33;99153.84;5103311;28;20084;-81
2021/05/05 04:56:15;;;;;;;6.35;1.95;;;;;;;7.47;67.11;99161.59;5103867;28;20078;-80
2021/05/05 04:58:41;;;;;;;8.15;1.83;;;;;;;7.50;67.46;99158.81;5106672;28;20120;-80
2021/05/05 05:01:08;;;;;;;7.13;1.83;;;;;;;7.60;66.93;99165.25;5104068;28;20051;-80
2021/05/05 05:03:36;;;;;;;5.50;1.65;;;;;;;7.67;66.24;99172.75;5109701;28;20064;-81
2021/05/05 05:06:05;;;;;;;6.28;1.70;;;;;;;7.68;65.24;99163.94;5096423;28;20087;-81
2021/05/05 05:08:31;;;;;;;9.13;2.33;;;;;;;7.79;65.18;99173.03;5092245;28;20652;-81
2021/05/05 05:11:00;;;;;;;9.63;2.00;;;;;;;7.83;64.21;99172.78;5080279;28;20105;-81
2021/05/05 05:13:26;;;;;;;7.30;1.90;;;;;;;7.79;64.43;99173.03;5098827;28;20056;-81
2021/05/05 05:15:53;;;;;;;9.88;1.52;;;;;;;7.87;63.69;99184.00;5093960;28;20056;-81
2021/05/05 05:18:19;;;;;;;6.68;1.77;;;;;;;7.86;63.94;99193.69;5081297;28;20067;-81
2021/05/05 05:20:46;;;;;;;7.50;2.05;;;;;;;7.93;63.30;99202.94;5098831;28;20075;-80
2021/05/05 05:23:13;;;;;;;7.63;1.80;;;;;;;7.95;63.32;99206.34;5103949;28;20044;-79
2021/05/05 05:25:39;;;;;;;10.05;1.90;;;;;;;7.93;62.67;99197.69;5100648;28;20497;-80
2021/05/05 05:28:05;;;;;;;14.93;2.28;;;;;;;8.00;62.42;99199.06;5094505;28;20070;-80
2021/05/05 05:30:32;;;;;;;10.00;2.10;;;;;;;8.02;62.34;99197.19;5097209;28;20059;-81
2021/05/05 05:32:58;;;;;;;10.50;2.20;;;;;;;8.09;61.78;99202.94;5098287;28;20052;-81
2021/05/05 05:35:25;;;;;;;8.75;2.03;;;;;;;8.10;61.15;99199.38;5094701;28;20056;-82
2021/05/05 05:37:52;;;;;;;7.28;1.75;;;;;;;8.12;61.40;99208.06;5093946;28;20066;-81
2021/05/05 05:40:19;;;;;;;6.38;1.80;;;;;;;8.15;61.31;99212.31;5088725;28;20062;-81
2021/05/05 05:42:45;;;;;;;7.28;1.52;;;;;;;8.20;60.85;99211.09;5093043;28;20136;-79
2021/05/05 05:45:15;;;;;;;9.75;1.70;;;;;;;8.29;60.60;99212.41;5094328;28;20102;-82
2021/05/05 05:47:43;;;;;;;7.72;1.63;;;;;;;8.40;61.27;99218.78;5098779;28;20082;-80
2021/05/05 05:50:10;;;;;;;13.23;2.50;;;;;;;8.60;60.68;99228.22;5108763;28;20044;-80
2021/05/05 05:52:38;;;;;;;10.48;2.33;;;;;;;8.85;59.86;99217.06;5107868;28;20079;-80
2021/05/05 05:55:07;;;;;;;9.32;2.53;;;;;;;8.99;58.49;99213.59;5104161;28;20060;-80
2021/05/05 05:57:35;;;;;;;11.63;2.75;;;;;;;9.01;58.04;99215.22;5095285;28;20123;-80
2021/05/05 06:00:10;;;;;;;7.88;1.95;;;;;;;9.05;58.16;99226.47;5111042;28;20044;-79
2021/05/05 06:02:37;;;;;;;12.27;2.22;;;;;;;9.12;57.89;99225.16;5091604;28;20103;-80
2021/05/05 06:05:07;;;;;;;6.28;2.00;;;;;;;9.12;57.72;99233.09;5112893;28;20147;-80
2021/05/05 06:07:34;;;;;;;8.15;2.00;;;;;;;9.22;57.88;99233.38;5111522;28;20036;-82
2021/05/05 06:10:03;;;;;;;6.95;1.80;;;;;;;9.32;57.79;99239.81;5118153;28;20080;-82
2021/05/05 06:12:30;;;;;;;5.88;1.92;;;;;;;9.55;57.02;99233.16;5110944;28;20048;-82
2021/05/05 06:14:59;;;;;;;6.15;2.15;;;;;;;10.89;53.24;99239.47;5102814;28;20071;-82
2021/05/05 06:17:26;;;;;;;9.68;2.25;;;;;;;12.97;48.41;99239.72;5100932;28;20339;-82
2021/05/05 06:19:52;;;;;;;6.00;1.85;;;;;;;13.53;47.64;99245.22;5099457;28;20175;-82
2021/05/05 06:22:18;;;;;;;5.78;2.10;;;;;;;14.39;43.53;99244.59;5097390;28;20044;-81
2021/05/05 06:24:46;;;;;;;11.52;2.35;;;;;;;15.80;40.62;99231.84;5101135;28;20044;-82
2021/05/05 06:27:13;;;;;;;6.38;2.60;;;;;;;16.78;38.33;99230.22;5096265;28;20980;-82
2021/05/05 06:29:41;;;;;;;9.43;2.25;;;;;;;17.92;35.27;99225.84;5096768;28;20574;-81
2021/05/05 06:32:08;;;;;;;8.02;2.05;;;;;;;18.78;33.27;99228.06;5078461;28;20440;-82
2021/05/05 06:34:34;;;;;;;10.73;1.88;;;;;;;19.51;33.04;99234.09;5058667;28;20045;-81
2021/05/05 06:37:04;;;;;;;5.82;1.83;;;;;;;20.29;31.47;99242.09;5098514;28;20059;-82
2021/05/05 06:39:32;;;;;;;6.90;2.03;;;;;;;20.51;29.82;99238.84;5112200;28;20720;-80
2021/05/05 06:42:01;;;;;;;9.07;2.22;;;;;;;20.52;30.00;99234.28;5124112;28;20044;-79
2021/05/05 06:44:28;;;;;;;6.43;1.83;;;;;;;20.65;29.04;99223.91;5091305;28;20044;-80
2021/05/05 06:46:55;;;;;;;8.23;2.47;;;;;;;20.91;29.68;99237.25;5097462;28;20372;-83
2021/05/05 06:49:24;;;;;;;9.43;1.95;;;;;;;20.94;29.13;99242.28;5095767;28;20555;-82
2021/05/05 06:51:54;;;;;;;6.60;1.73;;;;;;;20.82;29.82;99249.00;5101382;28;20048;-83
2021/05/05 06:54:22;;;;;;;9.13;2.13;;;;;;;21.47;29.10;99257.16;5095921;28;20118;-82
2021/05/05 06:56:49;;;;;;;4.90;2.00;;;;;;;21.33;28.14;99246.06;5102007;28;20044;-82
2021/05/05 06:59:17;;;;;;;5.40;1.77;;;;;;;21.53;28.83;99254.66;5095129;28;20056;-82
2021/05/05 07:01:46;;;;;;;;;;;;;;;21.55;28.25;99257.19;5099406;28;20052;-82
2021/05/05 07:04:12;;;;;;;8.65;1.98;;;;;;;20.76;28.72;99263.97;5092515;28;19924;-83
2021/05/05 07:06:39;;;;;;;8.10;2.10;;;;;;;20.87;28.88;99260.13;5102650;28;20040;-82
2021/05/05 07:09:10;;;;;;;6.07;1.95;;;;;;;20.66;29.16;99266.78;5093571;28;20058;-82
2021/05/05 07:11:38;;;;;;;11.27;2.67;;;;;;;20.00;30.14;99266.63;5093568;28;20071;-82
2021/05/05 07:14:08;;;;;;;8.13;2.17;;;;;;;18.61;31.84;99269.09;5097748;28;20047;-81
2021/05/05 07:16:35;;;;;;;9.48;2.20;;;;;;;17.08;34.61;99265.81;5099482;28;20067;-82
2021/05/05 07:19:03;;;;;;;4.95;2.03;;;;;;;15.62;37.86;99258.31;5097321;28;20063;-82
2021/05/05 07:21:31;;;;;;;9.07;2.90;;;;;;;14.68;39.38;99266.22;5095957;28;20039;-81
2021/05/05 07:23:57;;;;;;;7.97;2.20;;;;;;;14.48;40.51;99259.84;5102760;28;20063;-82
2021/05/05 07:26:25;;;;;;;6.78;2.00;;;;;;;14.14;41.10;99271.50;5097095;28;20068;-81
2021/05/05 07:28:52;;;;;;;5.70;2.03;;;;;;;13.34;43.03;99271.53;5089997;28;20108;-81
2021/05/05 07:31:19;;;;;;;6.30;2.20;;;;;;;14.08;42.54;99266.66;5102770;28;20083;-82
2021/05/05 07:33:50;;;;;;;10.32;2.45;;;;;;;14.43;41.05;99267.38;5099321;28;20050;-81
2021/05/05 07:36:20;;;;;;;5.68;2.08;;;;;;;14.54;41.15;99274.50;5078025;28;20052;-81
2021/05/05 07:42:12;;;;;;;8.75;2.38;;;;;;;13.02;45.17;99295.19;5096034;28;20036;-81
2021/05/05 07:47:17;;;;;;;8.95;2.50;;;;;;;11.40;53.86;99303.19;5095953;28;20093;-80
2021/05/05 07:49:55;;;;;;;7.95;2.30;;;;;;;11.01;54.33;99309.34;5095260;28;20101;-83
2021/05/05 07:52:22;;;;;;;7.15;2.38;;;;;;;12.18;51.94;99303.94;5099066;28;20059;-80
2021/05/05 07:54:49;;;;;;;4.75;2.20;;;;;;;13.86;47.75;99302.94;5102708;28;20069;-80
2021/05/05 07:57:18;;;;;;;5.55;2.15;;;;;;;15.37;44.29;99301.38;5105169;28;20105;-82
2021/05/05 07:59:45;;;;;;;7.18;2.28;;;;;;;16.60;41.01;99300.47;5104982;28;20118;-83
2021/05/05 08:02:13;;;;;;;5.47;1.92;;;;;;;17.69;38.96;99294.97;5101994;28;20084;-83
2021/05/05 08:04:49;;;;;;;9.02;2.60;;;;;;;18.69;36.80;99285.28;5108722;28;20052;-83
2021/05/05 08:07:20;;;;;;;7.35;2.33;;;;;;;19.66;35.25;99296.16;5102255;28;20052;-83
2021/05/05 08:09:54;;;;;;;10.07;2.10;;;;;;;20.23;32.90;99291.13;5081267;28;20387;-83
2021/05/05 08:12:21;;;;;;;7.13;2.70;;;;;;;20.11;32.92;99290.56;5096188;28;20044;-83
2021/05/05 08:14:50;;;;;;;7.65;2.88;;;;;;;19.71;33.18;99292.97;5105031;28;20112;-81
2021/05/05 08:17:20;;;;;;;5.20;2.40;;;;;;;19.75;33.28;99284.44;5103490;28;20055;-80
2021/05/05 08:19:48;;;;;;;6.95;2.33;;;;;;;19.04;34.44;99280.97;5101970;28;20064;-80
2021/05/05 08:22:14;;;;;;;5.35;2.33;;;;;;;18.17;36.55;99279.59;5102869;28;20058;-82
2021/05/05 08:24:45;;;;;;;8.25;2.72;;;;;;;18.27;36.26;99276.84;5113479;28;20067;-82
2021/05/05 08:27:13;;;;;;;9.82;2.60;;;;;;;18.13;36.44;99285.38;5103712;28;20036;-79
2021/05/05 08:29:40;;;;;;;7.63;2.33;;;;;;;18.22;34.57;99277.31;5111784;28;20050;-82
2021/05/05 08:32:06;;;;;;;7.05;2.17;;;;;;;17.40;35.29;99279.75;5116380;28;20039;-84
2021/05/05 08:34:33;;;;;;;5.25;2.22;;;;;;;16.82;37.55;99284.25;5113265;28;20052;-85
2021/05/05 08:36:59;;;;;;;6.90;2.58;;;;;;;15.95;38.52;99293.75;5114071;28;20043;-83
2021/05/05 08:39:26;;;;;;;7.22;2.00;;;;;;;14.92;39.10;99300.69;5113804;28;20070;-81
2021/05/05 08:41:55;;;;;;;7.47;2.80;;;;;;;13.84;41.11;99286.25;5089641;28;20078;-80
2021/05/05 08:44:23;;;;;;;5.75;2.53;;;;;;;13.31;43.40;99282.41;5105168;28;20062;-84
2021/05/05 08:46:53;;;;;;;7.40;2.63;;;;;;;13.13;45.10;99273.13;5099215;28;20086;-83
2021/05/05 08:49:33;;;;;;;11.63;2.70;;;;;;;13.15;43.73;99271.22;5094730;27;20713;-82
2021/05/05 08:52:00;;;;;;;6.25;2.05;;;;;;;13.19;43.25;99278.88;5088432;28;20071;-82
2021/05/05 08:54:27;;;;;;;6.55;1.98;;;;;;;13.22;42.44;99280.44;5090333;28;20048;-81
2021/05/05 08:56:53;;;;;;;6.78;1.75;;;;;;;12.98;41.58;99275.09;5093745;28;20075;-80
2021/05/05 08:59:21;;;;;;;5.55;1.90;;;;;;;12.82;41.41;99279.88;5100260;28;20050;-82
2021/05/05 09:01:47;;;;;;;5.30;1.90;;;;;;;12.83;41.20;99268.28;5088756;28;20048;-81
2021/05/05 09:04:21;;;;;;;5.20;1.65;;;;;;;12.97;40.50;99274.25;5090447;28;20049;-82
2021/05/05 09:06:50;;;;;;;6.32;1.90;;;;;;;13.10;40.76;99276.00;5092986;28;20055;-82
2021/05/05 09:09:41;;;;;;;7.55;1.88;;;;;;;12.97;40.18;99258.31;5090799;28;20163;-82
2021/05/05 09:12:23;;;;;;;6.90;1.80;;;;;;;12.91;39.27;99261.41;5087868;28;20112;-81
2021/05/05 09:14:57;;;;;;;2.92;1.60;;;;;;;13.14;40.23;99256.19;5082789;28;20044;-81
2021/05/05 09:17:28;;;;;;;3.55;1.50;;;;;;;13.49;39.92;99265.03;5084170;28;20108;-82
2021/05/05 09:20:03;;;;;;;6.40;1.80;;;;;;;13.76;38.94;99255.88;5089820;28;20072;-82
2021/05/05 09:22:41;;;;;;;3.22;1.70;;;;;;;13.91;37.93;99265.31;5084058;28;20124;-82
2021/05/05 09:25:11;;;;;;;3.22;1.30;;;;;;;14.04;38.34;99280.19;5088228;28;20083;-82
2021/05/05 09:27:38;;;;;;;11.70;1.67;;;;;;;14.02;36.36;99295.44;5088825;28;20131;-81
2021/05/05 09:30:16;;;;;;;3.75;1.35;;;;;;;13.98;35.60;99282.53;5097220;28;20478;-82
2021/05/05 09:32:54;;;;;;;5.07;1.48;;;;;;;13.94;35.37;99292.56;5096485;28;20059;-79
2021/05/05 09:35:37;;;;;;;2.47;1.20;;;;;;;13.61;35.45;99301.31;5089679;28;20048;-82
2021/05/05 09:38:09;;;;;;;3.15;0.90;;;;;;;12.84;40.99;99374.44;5083185;28;20136;-82
2021/05/05 09:40:53;;;;;;;3.60;0.70;;;;;;;11.63;46.48;99377.69;5083651;28;20131;-82
2021/05/05 09:43:24;;;;;;;1.35;0.50;;;;;;;10.73;52.89;99413.56;5104038;28;20104;-82
2021/05/05 09:45:54;;;;;;;1.23;0.70;;;;;;;10.18;57.75;99409.06;5093336;28;20075;-82
2021/05/05 09:48:22;;;;;;;0.77;0.60;;;;;;;9.88;58.56;99416.16;5089419;28;20538;-82
2021/05/05 09:51:02;;;;;;;1.48;0.52;;;;;;;9.65;58.63;99414.00;5089049;28;20079;-84
2021/05/05 09:53:32;;;;;;;0.90;0.80;;;;;;;9.48;58.24;99415.00;5086856;28;20068;-80
2021/05/05 09:55:58;;;;;;;2.50;1.45;;;;;;;9.29;58.66;99409.91;5088283;28;20657;-82
2021/05/05 09:58:34;;;;;;;1.40;0.80;;;;;;;9.42;60.20;99408.28;5092280;28;20075;-81
2021/05/05 10:01:07;;;;;;;3.20;1.10;;;;;;;9.93;59.54;99389.41;5072185;28;20052;-82
2021/05/05 10:03:36;;;;;;;4.38;1.20;;;;;;;10.55;58.20;99386.44;5079596;28;20040;-80
2021/05/05 10:06:21;;;;;;;2.13;1.00;;;;;;;10.90;54.37;99381.56;5086470;28;20040;-82
2021/05/05 10:09:07;;;;;;;3.28;1.10;;;;;;;11.11;53.59;99370.53;5091580;28;20049;-81
2021/05/05 10:11:42;;;;;;;3.33;1.38;;;;;;;11.04;54.80;99374.50;5079619;28;20041;-83
2021/05/05 10:14:14;;;;;;;2.03;1.35;;;;;;;11.07;53.40;99383.09;5077109;28;20095;-84
2021/05/05 10:16:42;;;;;;;1.83;1.00;;;;;;;11.29;53.62;99382.56;5081498;28;20048;-82
2021/05/05 10:19:12;;;;;;;2.92;1.02;;;;;;;11.50;52.90;99396.19;5085432;28;20036;-81
2021/05/05 10:21:42;;;;;;;1.52;1.00;;;;;;;11.54;53.34;99403.84;5089406;28;20104;-82
2021/05/05 10:24:11;;;;;;;3.75;0.80;;;;;;;11.50;51.27;99404.13;5089379;28;20171;-79
2021/05/05 10:26:42;;;;;;;0.65;0.45;;;;;;;11.30;49.17;99405.47;5082509;28;20025;-80
2021/05/05 10:29:20;;;;;;;1.50;0.63;;;;;;;11.03;49.08;99399.28;5086819;28;20044;-82
2021/05/05 10:32:01;;;;;;;1.10;0.50;;;;;;;10.90;49.73;99423.06;5088039;27;20044;-82
2021/05/05 10:34:33;;;;;;;1.45;0.68;;;;;;;10.79;49.79;99423.78;5094723;28;20056;-82
2021/05/05 10:37:04;;;;;;;1.73;0.73;;;;;;;10.69;49.34;99421.81;5085721;28;20052;-82
2021/05/05 10:39:36;;;;;;;1.27;0.77;;;;;;;10.53;49.28;99414.81;5077941;28;20035;-82
2021/05/05 10:42:17;;;;;;;3.75;0.80;;;;;;;10.70;48.92;99424.34;5074312;28;20041;-82
2021/05/05 10:45:05;;;;;;;2.38;0.90;;;;;;;10.96;49.42;99419.19;5071563;28;20131;-82
2021/05/05 10:47:37;;;;;;;3.35;1.10;;;;;;;11.31;47.78;99417.78;5076850;28;20066;-81
2021/05/05 10:50:13;;;;;;;0.80;0.60;;;;;;;11.58;47.38;99429.19;5073286;28;20028;-83
2021/05/05 10:52:41;;;;;;;2.80;0.85;;;;;;;11.76;46.72;99426.31;5085981;28;21576;-82
2021/05/05 10:55:12;;;;;;;2.63;1.08;;;;;;;11.85;46.74;99433.63;5074895;28;20048;-82
2021/05/05 10:57:41;;;;;;;1.48;1.08;;;;;;;12.05;46.11;99438.44;5079733;28;20100;-80
2021/05/05 11:00:13;;;;;;;1.58;1.00;;;;;;;12.10;45.38;99456.72;5073621;28;20082;-81
2021/05/05 11:02:51;;;;;;;1.88;0.80;;;;;;;12.17;45.48;99458.00;5076708;28;20070;-81
2021/05/05 11:05:33;;;;;;;2.78;0.70;;;;;;;12.23;45.14;99454.94;5079089;28;20060;-82
2021/05/05 11:08:05;;;;;;;2.67;0.80;;;;;;;12.50;45.96;99465.44;5078085;28;20041;-81
2021/05/05 11:10:45;;;;;;;1.75;0.70;;;;;;;12.69;44.94;99455.22;5079979;28;20041;-82
2021/05/05 11:13:30;;;;;;;2.70;0.80;;;;;;;13.02;44.78;99461.75;5082869;28;20048;-82
2021/05/05 11:15:57;;;;;;;5.95;2.78;;;;;;;12.77;44.06;99460.00;5080461;28;20041;-79
2021/05/05 11:18:30;;;;;;;1.65;0.75;;;;;;;12.83;44.68;99456.91;5072626;28;20045;-80
2021/05/05 11:21:01;;;;;;;2.33;0.82;;;;;;;12.71;44.99;99444.50;5084464;28;20044;-80
2021/05/05 11:23:33;;;;;;;4.88;0.68;;;;;;;12.33;45.21;99463.94;5085459;28;20112;-82
2021/05/05 11:26:16;;;;;;;1.25;0.60;;;;;;;12.15;46.31;99455.44;5091749;28;20071;-80
2021/05/05 11:28:57;;;;;;;1.80;0.85;;;;;;;12.35;45.33;99450.56;5088446;28;20062;-80
2021/05/05 11:31:48;;;;;;;1.08;0.70;;;;;;;12.59;44.83;99446.22;5079834;28;20044;-81
2021/05/05 11:34:18;;;;;;;4.43;1.30;;;;;;;12.87;44.89;99448.63;5086257;28;20087;-81
2021/05/05 11:36:55;;;;;;;;;;;;;;;13.23;44.17;99465.53;5080613;28;20067;-81
2021/05/05 11:39:23;;;;;;;1.90;0.80;;;;;;;13.41;42.24;99472.19;5083380;28;19924;-81
2021/05/05 11:41:53;;;;;;;2.95;1.23;;;;;;;13.47;42.37;99468.25;5088178;28;20064;-81
2021/05/05 11:44:41;;;;;;;1.60;0.60;;;;;;;13.52;41.46;99482.06;5074475;28;20049;-81
2021/05/05 11:47:09;;;;;;;1.20;0.70;;;;;;;13.70;41.26;99481.53;5073390;28;20076;-83
2021/05/05 11:49:39;;;;;;;0.70;0.70;;;;;;;14.04;41.39;99485.16;5082079;28;20082;-82
2021/05/05 11:52:18;;;;;;;1.80;0.60;;;;;;;14.46;39.66;99480.25;5085811;28;20045;-83
2021/05/05 11:54:48;;;;;;;1.83;0.95;;;;;;;14.66;39.01;99481.34;5076072;28;20060;-82
2021/05/05 11:57:16;;;;;;;0.75;0.50;;;;;;;14.67;38.87;99477.69;5079305;28;20068;-81